createdAt,value
2019-05-11T00:13:17.781Z,8.20
2019-05-11T00:43:20.382Z,8.05
2019-05-11T01:13:23.014Z,11.68
2019-05-11T01:43:25.600Z,6.85
2019-05-11T02:13:28.208Z,9.00
2019-05-11T02:43:30.825Z,9.70
2019-05-11T03:13:36.409Z,9.83
2019-05-11T03:43:39.079Z,9.65
2019-05-11T04:13:41.677Z,10.50
2019-05-11T04:43:44.277Z,9.88
2019-05-11T05:13:46.911Z,9.00
2019-05-11T05:43:49.516Z,8.83
2019-05-11T06:13:52.222Z,10.90
2019-05-11T06:44:01.655Z,11.22
2019-05-11T07:13:59.169Z,8.70
2019-05-11T07:44:01.749Z,6.20
2019-05-11T08:14:07.823Z,5.65
2019-05-11T08:44:10.494Z,6.50
2019-05-11T09:14:13.088Z,5.70
2019-05-11T09:44:18.045Z,4.17
2019-05-11T10:14:22.898Z,3.45
2019-05-11T10:44:27.925Z,3.20
2019-05-11T11:14:29.768Z,1.52
2019-05-11T11:44:32.730Z,2.10
2019-05-11T12:14:35.341Z,1.17
2019-05-11T12:44:38.789Z,1.22
2019-05-11T13:14:41.633Z,1.00
2019-05-11T13:44:44.260Z,0.80
2019-05-11T14:14:48.115Z,1.05
2019-05-11T14:44:50.818Z,2.80
2019-05-11T15:14:53.425Z,3.37
2019-05-11T15:44:56.052Z,4.00
2019-05-11T16:14:58.691Z,5.80
2019-05-11T16:45:01.308Z,4.92
2019-05-11T17:15:08.830Z,9.58
2019-05-11T17:45:12.149Z,12.30
2019-05-11T18:15:14.826Z,15.08
2019-05-11T18:45:18.875Z,17.05
2019-05-11T19:15:21.697Z,19.05
2019-05-11T19:45:25.103Z,23.22
2019-05-11T20:15:27.712Z,17.87
2019-05-11T20:45:30.357Z,17.00
2019-05-11T21:15:33.045Z,14.87
2019-05-11T21:45:38.293Z,12.75
2019-05-11T22:15:39.920Z,12.15
2019-05-11T22:45:42.540Z,11.88
2019-05-11T23:15:47.649Z,15.43
2019-05-11T23:45:49.456Z,16.07
